Time;durP1;ratioP1;P1;durP2;ratioP2;P2;SDS_P1;SDS_P2;PMS_P1;PMS_P2;Temp;Humidity;BMP_temperature;BMP_pressure;BME280_temperature;BME280_humidity;BME280_pressure;Samples;Min_cycle;Max_cycle;Signal;HPM_P1;HPM_P2
2022/03/30 00:01:00;;;;;;;44.78;24.52;;;7.80;99.90;;;;;;4832970;29;20034;-93
2022/03/30 00:03:26;;;;;;;49.97;22.33;;;7.80;99.90;;;;;;4830754;29;20033;-92
2022/03/30 00:05:52;;;;;;;45.80;23.17;;;7.80;99.90;;;;;;4830469;29;20034;-93
2022/03/30 00:08:18;;;;;;;47.65;23.38;;;7.80;99.90;;;;;;4830450;29;20511;-92
2022/03/30 00:10:43;;;;;;;52.75;23.23;;;7.80;99.90;;;;;;4830265;29;20041;-92
2022/03/30 00:13:10;;;;;;;47.03;21.85;;;7.80;99.90;;;;;;4832309;29;20026;-93
2022/03/30 00:15:36;;;;;;;46.33;22.55;;;7.80;99.90;;;;;;4838906;29;20088;-91
2022/03/30 00:18:02;;;;;;;49.75;23.17;;;7.80;99.90;;;;;;4829461;29;20500;-92
2022/03/30 00:20:28;;;;;;;49.67;23.17;;;7.70;99.90;;;;;;4829287;29;20054;-92
2022/03/30 00:22:53;;;;;;;53.40;24.20;;;7.70;99.90;;;;;;4829613;29;20447;-92
2022/03/30 00:25:20;;;;;;;45.42;22.13;;;7.70;99.90;;;;;;4829510;29;20133;-91
2022/03/30 00:27:46;;;;;;;50.67;21.92;;;7.60;99.90;;;;;;4829964;29;20167;-92
2022/03/30 00:30:17;;;;;;;47.33;23.60;;;7.60;99.90;;;;;;4829398;29;20040;-92
2022/03/30 00:32:44;;;;;;;52.63;23.75;;;7.60;99.90;;;;;;4831879;29;20239;-92
2022/03/30 00:35:10;;;;;;;48.25;23.13;;;7.60;99.90;;;;;;4850489;29;20046;-91
2022/03/30 00:37:36;;;;;;;46.28;22.95;;;7.60;99.90;;;;;;4829834;29;20041;-92
2022/03/30 00:40:04;;;;;;;46.80;23.42;;;7.60;99.90;;;;;;4830673;29;20038;-92
2022/03/30 00:42:30;;;;;;;54.00;24.30;;;7.60;99.90;;;;;;4847058;29;20037;-92
2022/03/30 00:44:57;;;;;;;58.17;24.33;;;7.60;99.90;;;;;;4831110;29;20061;-93
2022/03/30 00:47:26;;;;;;;47.70;23.20;;;7.60;99.90;;;;;;4832830;29;20038;-92
2022/03/30 00:49:52;;;;;;;48.60;23.58;;;7.50;99.90;;;;;;4843636;29;20152;-91
2022/03/30 00:52:20;;;;;;;46.40;22.90;;;7.50;99.90;;;;;;4847474;29;20030;-91
2022/03/30 00:54:49;;;;;;;51.80;24.77;;;7.50;99.90;;;;;;4845548;29;20037;-92
2022/03/30 00:57:21;;;;;;;49.90;25.15;;;7.50;99.90;;;;;;4861098;29;20030;-91
2022/03/30 00:59:47;;;;;;;50.47;24.15;;;7.50;99.90;;;;;;4842834;29;20033;-91
2022/03/30 01:02:13;;;;;;;52.42;23.85;;;7.50;99.90;;;;;;4841277;29;20058;-91
2022/03/30 01:04:39;;;;;;;51.53;23.58;;;7.50;99.90;;;;;;4829948;29;20030;-93
2022/03/30 01:07:05;;;;;;;49.08;23.33;;;7.50;99.90;;;;;;4829688;29;20480;-92
2022/03/30 01:09:31;;;;;;;46.65;22.83;;;7.50;99.90;;;;;;4829912;29;20503;-91
2022/03/30 01:11:58;;;;;;;54.70;23.77;;;7.50;99.90;;;;;;4830256;29;20030;-92
2022/03/30 01:14:25;;;;;;;48.35;23.02;;;7.40;99.90;;;;;;4829823;29;20026;-92
2022/03/30 01:16:51;;;;;;;48.33;23.48;;;7.40;99.90;;;;;;4829471;29;20038;-91
2022/03/30 01:19:17;;;;;;;56.13;23.88;;;7.40;99.90;;;;;;4829479;29;20037;-92
2022/03/30 01:21:43;;;;;;;55.67;25.10;;;7.40;99.90;;;;;;4828741;29;20135;-92
2022/03/30 01:24:11;;;;;;;49.60;24.10;;;7.40;99.90;;;;;;4814183;29;20132;-92
2022/03/30 01:26:37;;;;;;;53.10;23.77;;;7.40;99.90;;;;;;4829035;29;20038;-92
2022/03/30 01:34:41;;;;;;;49.95;23.23;;;7.30;99.90;;;;;;4770545;30;20289;-92
2022/03/30 01:37:09;;;;;;;51.40;21.75;;;7.30;99.90;;;;;;4770015;30;20044;-92
2022/03/30 01:39:35;;;;;;;47.25;22.80;;;7.30;99.90;;;;;;4769895;30;20568;-92
2022/03/30 01:42:01;;;;;;;46.80;23.38;;;7.30;99.90;;;;;;4770187;30;20040;-92
2022/03/30 01:44:27;;;;;;;50.83;23.45;;;7.30;99.90;;;;;;4770279;30;20028;-93
2022/03/30 01:46:53;;;;;;;53.35;23.38;;;7.20;99.90;;;;;;4755784;30;20066;-92
2022/03/30 01:49:21;;;;;;;49.00;23.45;;;7.30;99.90;;;;;;4775272;30;20048;-91
2022/03/30 01:51:54;;;;;;;53.55;24.35;;;7.30;99.90;;;;;;4759690;30;20569;-92
2022/03/30 01:54:23;;;;;;;47.42;21.45;;;7.20;99.90;;;;;;4773558;30;20056;-92
2022/03/30 01:56:51;;;;;;;51.28;23.35;;;7.20;99.90;;;;;;4769904;30;20067;-91
2022/03/30 01:59:18;;;;;;;50.90;22.92;;;7.20;99.90;;;;;;4780737;30;20059;-91
2022/03/30 02:01:44;;;;;;;53.15;23.55;;;7.20;99.90;;;;;;4776253;30;20074;-92
2022/03/30 02:04:09;;;;;;;46.58;22.23;;;7.20;99.90;;;;;;4769933;30;20031;-91
2022/03/30 02:06:37;;;;;;;45.22;22.50;;;7.20;99.90;;;;;;4770005;30;20028;-91
2022/03/30 02:09:05;;;;;;;45.55;22.50;;;7.10;99.90;;;;;;4804395;29;20060;-92
2022/03/30 02:11:31;;;;;;;43.05;21.52;;;7.10;99.90;;;;;;4827862;29;20105;-91
2022/03/30 02:13:57;;;;;;;45.63;20.42;;;7.10;99.90;;;;;;4827455;29;20508;-92
2022/03/30 02:16:24;;;;;;;53.95;22.85;;;7.10;99.90;;;;;;4827642;29;20038;-92
2022/03/30 02:18:50;;;;;;;45.45;20.83;;;7.10;99.90;;;;;;4827070;29;20038;-92
2022/03/30 02:21:16;;;;;;;47.15;21.55;;;7.10;99.90;;;;;;4828950;29;20093;-92
2022/03/30 02:23:45;;;;;;;43.78;21.05;;;7.10;99.90;;;;;;4831104;29;20396;-92
2022/03/30 02:26:12;;;;;;;47.25;20.88;;;7.10;99.90;;;;;;4832426;29;20433;-93
2022/03/30 02:28:39;;;;;;;48.53;21.98;;;7.10;99.90;;;;;;4839152;29;20037;-92
2022/03/30 02:31:05;;;;;;;43.53;20.40;;;7.10;99.90;;;;;;4841416;29;20030;-93
2022/03/30 02:33:31;;;;;;;46.80;22.40;;;7.10;99.90;;;;;;4835650;29;20536;-93
2022/03/30 02:35:56;;;;;;;51.72;22.45;;;7.10;99.90;;;;;;4832756;29;20711;-92
2022/03/30 02:38:22;;;;;;;49.05;22.45;;;7.00;99.90;;;;;;4830825;29;20034;-92
2022/03/30 02:40:48;;;;;;;51.03;23.27;;;7.00;99.90;;;;;;4830589;29;20068;-93
2022/03/30 02:43:16;;;;;;;49.05;21.25;;;7.00;99.90;;;;;;4830790;29;20074;-94
2022/03/30 02:45:43;;;;;;;49.63;21.92;;;7.00;99.90;;;;;;4831018;29;20393;-92
2022/03/30 02:48:17;;;;;;;52.03;21.55;;;6.90;99.90;;;;;;4830635;29;20030;-94
2022/03/30 02:50:54;;;;;;;43.35;19.42;;;6.90;99.90;;;;;;4829632;29;20426;-93
2022/03/30 02:53:21;;;;;;;49.42;21.25;;;6.90;99.90;;;;;;4830022;29;20524;-93
2022/03/30 02:55:47;;;;;;;47.58;21.20;;;6.90;99.90;;;;;;4830007;29;20050;-92
2022/03/30 02:58:13;;;;;;;47.58;21.65;;;6.90;99.90;;;;;;4830157;29;20030;-91
2022/03/30 03:00:39;;;;;;;47.28;20.52;;;6.90;99.90;;;;;;4830388;29;20030;-90
2022/03/30 03:03:07;;;;;;;46.17;20.77;;;6.80;99.90;;;;;;4829859;29;20049;-92
2022/03/30 03:05:36;;;;;;;46.05;21.10;;;6.80;99.90;;;;;;4830402;29;20049;-90
2022/03/30 03:08:04;;;;;;;44.92;20.85;;;6.80;99.90;;;;;;4830306;29;20034;-91
2022/03/30 03:10:31;;;;;;;42.50;20.30;;;6.80;99.90;;;;;;4829924;29;20042;-91
2022/03/30 03:12:56;;;;;;;42.22;19.13;;;6.80;99.90;;;;;;4830231;29;20030;-92
2022/03/30 03:15:23;;;;;;;48.30;22.08;;;6.80;99.90;;;;;;4830147;29;20116;-92
2022/03/30 03:17:49;;;;;;;37.30;17.80;;;6.80;99.90;;;;;;4830131;29;20068;-91
2022/03/30 03:20:16;;;;;;;43.97;21.20;;;6.80;99.90;;;;;;4830129;29;20038;-91
2022/03/30 03:22:42;;;;;;;46.78;21.05;;;6.80;99.90;;;;;;4815456;29;20042;-90
2022/03/30 03:25:10;;;;;;;45.35;21.55;;;6.70;99.90;;;;;;4830205;29;20506;-92
2022/03/30 03:27:37;;;;;;;46.53;21.85;;;6.70;99.90;;;;;;4830274;29;20073;-92
2022/03/30 03:30:05;;;;;;;42.83;20.13;;;6.70;99.90;;;;;;4829752;29;20500;-93
2022/03/30 03:32:31;;;;;;;43.33;20.65;;;6.60;99.90;;;;;;4829489;29;20034;-91
2022/03/30 03:34:57;;;;;;;49.65;21.67;;;6.60;99.90;;;;;;4829539;29;20041;-91
2022/03/30 03:37:23;;;;;;;46.20;19.70;;;6.60;99.90;;;;;;4830091;29;20042;-91
2022/03/30 03:39:49;;;;;;;47.35;20.63;;;6.50;99.90;;;;;;4829762;29;20029;-93
2022/03/30 03:42:16;;;;;;;44.08;19.35;;;6.50;99.90;;;;;;4846526;29;20156;-91
2022/03/30 03:44:42;;;;;;;45.67;20.02;;;6.50;99.90;;;;;;4830652;29;20034;-90
2022/03/30 03:47:09;;;;;;;46.05;20.80;;;6.50;99.90;;;;;;4841212;29;20057;-90
2022/03/30 03:49:36;;;;;;;45.80;20.27;;;6.50;99.90;;;;;;4831997;29;20061;-91
2022/03/30 03:52:03;;;;;;;48.08;19.15;;;6.40;99.90;;;;;;4830702;29;20041;-90
2022/03/30 03:54:29;;;;;;;38.97;18.95;;;6.30;99.90;;;;;;4840387;29;20105;-91
2022/03/30 03:56:54;;;;;;;43.42;19.67;;;6.30;99.90;;;;;;4841342;29;20050;-90
2022/03/30 03:59:21;;;;;;;42.47;18.77;;;6.30;99.90;;;;;;4839007;29;20026;-91
2022/03/30 04:01:49;;;;;;;43.13;19.20;;;6.40;99.90;;;;;;4850849;29;20029;-92
2022/03/30 04:04:19;;;;;;;44.03;20.80;;;6.40;99.90;;;;;;4831321;29;20030;-90
2022/03/30 04:06:44;;;;;;;47.13;19.38;;;6.40;99.90;;;;;;4840153;29;20053;-91
2022/03/30 04:09:10;;;;;;;48.33;19.90;;;6.40;99.90;;;;;;4843319;29;20083;-90
2022/03/30 04:11:36;;;;;;;42.33;19.05;;;6.40;99.90;;;;;;4846790;29;20037;-91
2022/03/30 04:14:02;;;;;;;49.15;20.50;;;6.50;99.90;;;;;;4848094;29;20056;-91
2022/03/30 04:16:28;;;;;;;44.90;19.55;;;6.50;99.90;;;;;;4846830;29;20049;-91
2022/03/30 04:18:54;;;;;;;45.47;19.33;;;6.50;99.90;;;;;;4845264;29;20038;-91
2022/03/30 04:21:20;;;;;;;45.28;20.15;;;6.50;99.90;;;;;;4843404;29;20050;-91
2022/03/30 04:23:46;;;;;;;45.08;18.85;;;6.40;99.90;;;;;;4839023;29;20798;-92
2022/03/30 04:26:12;;;;;;;43.35;19.80;;;6.40;99.90;;;;;;4852010;29;20357;-91
2022/03/30 04:28:40;;;;;;;43.75;20.80;;;6.40;99.90;;;;;;4835007;29;20022;-90
2022/03/30 04:31:11;;;;;;;50.28;20.65;;;6.40;99.90;;;;;;4849910;29;20094;-91
2022/03/30 04:33:38;;;;;;;45.70;20.88;;;6.40;99.90;;;;;;4842318;29;20052;-91
2022/03/30 04:36:05;;;;;;;43.97;19.80;;;6.30;99.90;;;;;;4840402;29;20134;-92
2022/03/30 04:38:33;;;;;;;44.78;20.45;;;6.30;99.90;;;;;;4832642;29;20113;-91
2022/03/30 04:40:59;;;;;;;45.63;20.35;;;6.20;99.90;;;;;;4832287;29;20041;-92
2022/03/30 04:43:26;;;;;;;44.70;21.02;;;6.20;99.90;;;;;;4848985;29;20388;-91
2022/03/30 04:45:54;;;;;;;50.80;21.52;;;6.20;99.90;;;;;;4831311;29;20038;-92
2022/03/30 04:48:20;;;;;;;49.28;21.13;;;6.10;99.90;;;;;;4831473;29;20026;-93
2022/03/30 04:50:46;;;;;;;49.92;21.55;;;6.10;99.90;;;;;;4831632;29;20030;-92
2022/03/30 04:53:12;;;;;;;53.03;22.60;;;6.10;99.90;;;;;;4831045;29;20054;-92
2022/03/30 04:55:38;;;;;;;49.97;21.77;;;6.10;99.90;;;;;;4830630;29;20061;-92
2022/03/30 04:58:04;;;;;;;48.17;21.98;;;6.00;99.90;;;;;;4834373;29;20086;-93
2022/03/30 05:00:31;;;;;;;49.15;22.10;;;6.00;99.90;;;;;;4835961;29;20044;-92
2022/03/30 05:02:57;;;;;;;47.25;21.10;;;6.00;99.90;;;;;;4854508;29;20030;-93
2022/03/30 05:05:23;;;;;;;43.25;19.30;;;6.00;99.90;;;;;;4844096;29;20044;-91
2022/03/30 05:07:49;;;;;;;45.00;19.85;;;6.00;99.90;;;;;;4850275;29;20022;-92
2022/03/30 05:10:15;;;;;;;45.45;20.92;;;5.90;99.90;;;;;;4849739;29;20014;-92
2022/03/30 05:12:41;;;;;;;54.33;22.75;;;5.90;99.90;;;;;;4850038;29;20078;-92
2022/03/30 05:15:09;;;;;;;51.92;20.38;;;5.80;99.90;;;;;;4848595;29;20030;-92
2022/03/30 05:17:37;;;;;;;51.80;21.65;;;5.80;99.90;;;;;;4835839;29;20037;-92
2022/03/30 05:20:04;;;;;;;51.97;21.75;;;5.80;99.90;;;;;;4833334;29;20044;-93
2022/03/30 05:22:29;;;;;;;56.63;22.88;;;5.80;99.90;;;;;;4831335;29;20061;-92
2022/03/30 05:24:56;;;;;;;53.20;21.88;;;5.80;99.90;;;;;;4830488;29;20026;-91
2022/03/30 05:27:22;;;;;;;53.33;21.60;;;5.80;99.90;;;;;;4847766;29;20034;-91
2022/03/30 05:29:48;;;;;;;51.75;22.73;;;5.80;99.90;;;;;;4829895;29;20025;-91
2022/03/30 05:32:14;;;;;;;51.97;23.30;;;5.80;99.90;;;;;;4833662;29;20065;-92
2022/03/30 05:34:40;;;;;;;52.38;23.23;;;5.90;99.90;;;;;;4830785;29;20078;-93
2022/03/30 05:37:06;;;;;;;51.72;23.40;;;5.90;99.90;;;;;;4829656;29;20038;-92
2022/03/30 05:39:32;;;;;;;48.63;21.13;;;5.90;99.90;;;;;;4828954;29;20036;-93
2022/03/30 05:41:58;;;;;;;51.05;22.45;;;6.00;99.90;;;;;;4845746;29;20033;-91
2022/03/30 05:44:24;;;;;;;52.70;23.05;;;5.90;99.90;;;;;;4830222;29;20051;-92
2022/03/30 05:46:49;;;;;;;51.95;22.42;;;6.00;99.90;;;;;;4829821;29;20488;-90
2022/03/30 05:49:16;;;;;;;50.95;23.25;;;5.90;99.90;;;;;;4828877;29;20030;-91
2022/03/30 05:51:42;;;;;;;55.65;23.48;;;5.90;99.90;;;;;;4829333;29;20033;-91
2022/03/30 05:54:08;;;;;;;47.97;21.30;;;5.90;99.90;;;;;;4828267;29;20496;-91
2022/03/30 05:59:19;;;;;;;56.70;23.05;;;5.90;99.90;;;;;;4849077;29;20069;-91
2022/03/30 06:01:45;;;;;;;53.38;22.45;;;5.80;99.90;;;;;;4832619;29;20487;-92
2022/03/30 06:04:10;;;;;;;58.83;23.58;;;5.80;99.90;;;;;;4832921;29;20026;-91
2022/03/30 06:06:36;;;;;;;57.97;23.52;;;5.80;99.90;;;;;;4833833;29;20505;-91
2022/03/30 06:09:07;;;;;;;53.22;24.02;;;5.80;99.90;;;;;;4833265;29;20048;-91
2022/03/30 06:11:33;;;;;;;59.50;24.02;;;5.80;99.90;;;;;;4833017;29;20449;-91
2022/03/30 06:13:59;;;;;;;60.65;24.42;;;5.80;99.90;;;;;;4833154;29;20038;-92
2022/03/30 06:16:27;;;;;;;55.20;24.80;;;5.90;99.90;;;;;;4833576;29;20042;-92
2022/03/30 06:18:54;;;;;;;57.58;24.27;;;5.90;99.90;;;;;;4831829;29;20057;-92
2022/03/30 06:21:20;;;;;;;56.55;24.02;;;5.90;99.90;;;;;;4831403;29;20065;-90
2022/03/30 06:23:48;;;;;;;65.53;24.20;;;6.00;99.90;;;;;;4832455;29;20037;-91
2022/03/30 06:26:14;;;;;;;58.47;24.20;;;5.90;99.90;;;;;;4832747;29;20029;-92
2022/03/30 06:28:40;;;;;;;58.55;25.10;;;5.90;99.90;;;;;;4831659;29;20026;-91
2022/03/30 06:31:05;;;;;;;54.60;21.90;;;6.00;99.90;;;;;;4839119;29;20068;-92
2022/03/30 06:33:31;;;;;;;52.00;22.73;;;6.00;99.90;;;;;;4840188;29;20018;-92
2022/03/30 06:35:58;;;;;;;61.30;24.50;;;5.90;99.90;;;;;;4838020;29;20037;-92
2022/03/30 06:38:25;;;;;;;57.67;24.65;;;6.00;99.90;;;;;;4835465;29;20048;-92
2022/03/30 06:40:51;;;;;;;55.72;24.15;;;6.00;99.90;;;;;;4833853;29;20061;-93
2022/03/30 06:43:16;;;;;;;53.25;22.65;;;6.00;99.90;;;;;;4831274;29;20124;-92
2022/03/30 06:45:44;;;;;;;58.13;23.77;;;6.10;99.90;;;;;;4834199;29;20030;-93
2022/03/30 06:48:11;;;;;;;56.55;25.73;;;6.10;99.90;;;;;;4853609;29;20078;-92
2022/03/30 06:50:37;;;;;;;56.22;24.40;;;6.10;99.90;;;;;;4834497;29;20086;-93
2022/03/30 06:53:05;;;;;;;55.95;23.67;;;6.10;99.90;;;;;;4834226;29;20086;-92
2022/03/30 06:55:31;;;;;;;55.53;23.63;;;6.10;99.90;;;;;;4832614;29;20044;-92
2022/03/30 06:57:58;;;;;;;49.72;21.88;;;6.10;99.90;;;;;;4815045;29;20041;-91
2022/03/30 07:00:27;;;;;;;48.97;21.02;;;6.10;99.90;;;;;;4831871;29;20044;-90
2022/03/30 07:02:53;;;;;;;32.63;13.07;;;6.10;99.90;;;;;;4835926;29;20033;-90
2022/03/30 07:05:18;;;;;;;9.93;5.35;;;6.00;99.90;;;;;;4836363;29;20033;-90
2022/03/30 07:10:31;;;;;;;8.57;5.00;;;5.90;99.90;;;;;;4846424;29;20064;-89
2022/03/30 07:12:58;;;;;;;8.43;3.50;;;5.90;99.90;;;;;;4836160;29;20029;-91
2022/03/30 07:15:24;;;;;;;7.25;4.05;;;5.80;99.90;;;;;;4838768;29;20041;-91
2022/03/30 07:17:55;;;;;;;7.70;3.70;;;5.70;99.90;;;;;;4837403;29;20037;-91
2022/03/30 07:20:24;;;;;;;6.70;3.22;;;5.70;99.90;;;;;;4846864;29;20046;-93
2022/03/30 07:22:50;;;;;;;7.50;4.45;;;5.60;99.90;;;;;;4850365;29;20034;-90
2022/03/30 07:25:22;;;;;;;3.88;3.00;;;5.60;99.90;;;;;;4845344;29;20034;-92
2022/03/30 07:27:55;;;;;;;3.65;2.78;;;5.50;99.90;;;;;;4842999;29;20026;-91
2022/03/30 07:30:23;;;;;;;6.45;4.00;;;5.50;99.90;;;;;;4845349;29;20037;-91
2022/03/30 07:32:50;;;;;;;6.20;3.25;;;5.50;99.90;;;;;;4838948;29;20054;-91
2022/03/30 07:35:18;;;;;;;3.95;2.88;;;5.60;99.90;;;;;;4840277;29;20050;-90
2022/03/30 07:37:45;;;;;;;4.68;3.08;;;5.60;99.90;;;;;;4834816;29;20089;-91
2022/03/30 07:40:13;;;;;;;2.70;2.22;;;5.60;99.90;;;;;;4841443;29;20049;-91
2022/03/30 07:42:40;;;;;;;2.67;2.22;;;5.50;99.90;;;;;;4833276;29;20046;-90
2022/03/30 07:45:07;;;;;;;2.97;1.83;;;5.50;99.90;;;;;;4816640;29;20046;-91
2022/03/30 07:47:33;;;;;;;2.55;2.03;;;5.60;99.90;;;;;;4830715;29;20058;-90
2022/03/30 07:50:02;;;;;;;1.70;1.58;;;5.50;99.90;;;;;;4846347;29;20029;-92
2022/03/30 07:52:28;;;;;;;2.00;1.73;;;5.50;99.90;;;;;;4831497;29;20536;-92
2022/03/30 07:54:54;;;;;;;1.42;1.17;;;5.50;99.90;;;;;;4817955;29;20049;-92
2022/03/30 07:57:26;;;;;;;1.13;1.00;;;5.50;99.90;;;;;;4837902;29;20036;-92
2022/03/30 07:59:59;;;;;;;0.75;0.75;;;5.40;99.90;;;;;;4836362;29;20030;-92
2022/03/30 08:02:27;;;;;;;0.55;0.50;;;5.40;99.90;;;;;;4838228;29;20072;-92
2022/03/30 08:04:54;;;;;;;0.50;0.40;;;5.30;99.90;;;;;;4831000;29;20492;-92
2022/03/30 08:07:21;;;;;;;0.30;0.30;;;5.30;99.90;;;;;;4847805;29;20030;-90
2022/03/30 08:09:47;;;;;;;0.40;0.40;;;5.20;99.90;;;;;;4830570;29;20133;-90
2022/03/30 08:12:14;;;;;;;1.17;0.50;;;5.10;99.90;;;;;;4830598;29;20061;-91
2022/03/30 08:14:44;;;;;;;0.70;0.70;;;5.00;99.90;;;;;;4832295;29;20182;-91
2022/03/30 08:17:10;;;;;;;0.50;0.50;;;5.00;99.90;;;;;;4829571;29;20063;-91
2022/03/30 08:19:37;;;;;;;0.65;0.65;;;5.00;99.90;;;;;;4828922;29;20468;-91
2022/03/30 08:24:47;;;;;;;0.80;0.80;;;5.00;99.90;;;;;;4855295;29;20554;-92
2022/03/30 08:27:18;;;;;;;0.85;0.85;;;4.90;99.90;;;;;;4840338;29;20082;-92
2022/03/30 08:29:44;;;;;;;1.40;0.70;;;4.90;99.90;;;;;;4840314;29;20041;-91
2022/03/30 08:32:11;;;;;;;0.50;0.50;;;4.90;99.90;;;;;;4846290;29;20105;-92
2022/03/30 08:34:37;;;;;;;0.30;0.30;;;4.80;99.90;;;;;;4835951;29;20030;-92
2022/03/30 08:37:04;;;;;;;0.47;0.47;;;4.80;99.90;;;;;;4833925;29;20046;-91
2022/03/30 08:39:35;;;;;;;0.50;0.50;;;4.70;99.90;;;;;;4831363;29;20033;-92
2022/03/30 08:42:06;;;;;;;0.80;0.80;;;4.70;99.90;;;;;;4830019;29;20033;-91
2022/03/30 08:44:33;;;;;;;0.82;0.82;;;4.70;99.90;;;;;;4831890;29;20022;-91
2022/03/30 08:47:00;;;;;;;0.80;0.80;;;4.60;99.90;;;;;;4831146;29;20057;-89
2022/03/30 08:49:27;;;;;;;0.93;0.82;;;4.60;99.90;;;;;;4832349;29;20026;-92
2022/03/30 08:51:55;;;;;;;1.35;1.02;;;4.60;99.90;;;;;;4832133;29;20034;-91
2022/03/30 08:54:21;;;;;;;1.25;1.15;;;4.60;99.90;;;;;;4834357;29;20021;-91
2022/03/30 08:56:50;;;;;;;1.27;1.17;;;4.60;99.90;;;;;;4834231;29;20034;-91
2022/03/30 08:59:19;;;;;;;1.75;1.25;;;4.50;99.90;;;;;;4834655;29;20034;-91
2022/03/30 09:01:45;;;;;;;1.77;1.50;;;4.50;99.90;;;;;;4832718;29;20029;-93
2022/03/30 09:05:01;;;;;;;1.45;1.27;;;4.50;99.90;;;;;;4836122;29;20022;-91
2022/03/30 09:07:27;;;;;;;1.50;1.20;;;4.50;99.90;;;;;;4835686;29;20029;-92
2022/03/30 09:10:06;;;;;;;1.95;1.50;;;4.50;99.90;;;;;;4833247;29;20046;-92
2022/03/30 09:12:33;;;;;;;1.70;1.30;;;4.60;99.90;;;;;;4829708;29;20026;-90
2022/03/30 09:15:08;;;;;;;1.45;1.33;;;4.70;99.90;;;;;;4836015;29;20424;-90
2022/03/30 09:17:38;;;;;;;1.90;1.40;;;4.70;99.90;;;;;;4833961;29;20041;-90
2022/03/30 09:20:06;;;;;;;2.00;1.80;;;4.80;99.90;;;;;;4826887;29;20038;-91
2022/03/30 09:22:44;;;;;;;3.05;2.15;;;4.80;99.90;;;;;;4812713;29;20050;-91
2022/03/30 09:25:11;;;;;;;2.88;1.85;;;4.90;99.90;;;;;;4812288;29;20084;-92
2022/03/30 09:27:46;;;;;;;2.80;1.60;;;4.90;99.90;;;;;;4795083;29;20043;-90
2022/03/30 09:30:17;;;;;;;3.63;2.10;;;4.90;99.90;;;;;;4808135;29;20031;-91
2022/03/30 09:32:45;;;;;;;2.47;1.67;;;5.00;99.90;;;;;;4816522;29;20049;-93
2022/03/30 09:35:32;;;;;;;2.30;1.70;;;5.00;99.90;;;;;;4810985;29;20390;-93
2022/03/30 09:38:37;;;;;;;3.22;2.10;;;5.00;99.90;;;;;;4809901;29;20035;-92
2022/03/30 09:41:11;;;;;;;2.60;1.65;;;5.10;99.90;;;;;;4805523;29;20505;-91
2022/03/30 09:43:41;;;;;;;1.90;1.55;;;5.20;99.90;;;;;;4811267;29;20023;-90
2022/03/30 09:46:16;;;;;;;1.63;1.33;;;5.30;99.90;;;;;;4824494;29;20504;-93
2022/03/30 09:48:50;;;;;;;1.35;1.25;;;5.30;99.90;;;;;;4811872;29;20034;-92
2022/03/30 09:51:17;;;;;;;1.27;1.17;;;5.30;99.90;;;;;;4810368;29;20033;-92
2022/03/30 09:53:43;;;;;;;2.15;1.42;;;5.30;99.90;;;;;;4802598;29;20034;-91
2022/03/30 09:56:17;;;;;;;2.67;1.60;;;5.30;99.90;;;;;;4816580;29;20042;-91
2022/03/30 09:58:43;;;;;;;1.35;1.20;;;5.30;99.90;;;;;;4810853;29;20034;-89
2022/03/30 10:01:19;;;;;;;3.10;1.33;;;5.30;99.90;;;;;;4811410;29;20390;-90
2022/03/30 10:04:09;;;;;;;1.75;1.35;;;5.40;99.90;;;;;;4811438;29;20042;-92
2022/03/30 10:06:36;;;;;;;1.40;1.30;;;5.40;99.90;;;;;;4810693;29;20409;-91
2022/03/30 10:09:03;;;;;;;1.65;1.30;;;5.50;99.90;;;;;;4811780;29;20049;-91
2022/03/30 10:11:32;;;;;;;2.40;1.60;;;5.60;99.90;;;;;;4825526;29;20125;-91
2022/03/30 10:14:05;;;;;;;1.33;1.23;;;5.70;99.90;;;;;;4806731;29;20034;-91
2022/03/30 10:16:34;;;;;;;1.45;1.30;;;5.80;99.90;;;;;;4803697;29;20042;-92
2022/03/30 10:19:00;;;;;;;1.40;1.30;;;5.90;99.90;;;;;;4802630;29;20026;-90
2022/03/30 10:21:46;;;;;;;1.80;1.23;;;5.90;99.90;;;;;;4817598;29;20144;-90
2022/03/30 10:24:28;;;;;;;1.08;0.98;;;6.00;99.90;;;;;;4809386;29;20035;-90
2022/03/30 10:27:17;;;;;;;1.23;1.13;;;6.10;99.90;;;;;;4825121;29;20072;-92
2022/03/30 10:29:52;;;;;;;1.75;1.08;;;6.10;99.90;;;;;;4810041;29;20034;-92
2022/03/30 10:32:21;;;;;;;0.90;0.90;;;6.20;99.90;;;;;;4825505;29;20045;-92
2022/03/30 10:34:53;;;;;;;1.00;0.90;;;6.20;99.90;;;;;;4826032;29;20030;-91
2022/03/30 11:14:31;;;;;;;1.85;1.30;;;6.20;99.90;;;;;;5227273;23;20027;-91
2022/03/30 11:17:05;;;;;;;2.58;1.80;;;6.20;99.90;;;;;;4820346;29;20394;-91
2022/03/30 11:19:46;;;;;;;1.98;1.70;;;6.20;99.90;;;;;;4819918;29;20023;-92
2022/03/30 11:22:14;;;;;;;2.85;1.40;;;6.20;99.90;;;;;;4819966;29;20030;-90
2022/03/30 11:25:06;;;;;;;1.85;1.60;;;6.20;99.90;;;;;;4820304;29;20083;-91
2022/03/30 11:27:33;;;;;;;2.60;2.00;;;6.20;99.90;;;;;;4822255;29;20022;-92
2022/03/30 11:30:10;;;;;;;2.45;2.00;;;6.20;99.90;;;;;;4820980;29;20090;-91
2022/03/30 11:32:49;;;;;;;3.30;2.10;;;6.20;99.90;;;;;;4822245;29;20125;-93
2022/03/30 11:35:19;;;;;;;2.58;1.85;;;6.20;99.90;;;;;;4820441;29;20115;-90
2022/03/30 11:38:16;;;;;;;2.25;1.83;;;6.20;99.90;;;;;;4819120;29;20034;-93
2022/03/30 11:40:45;;;;;;;2.92;2.25;;;6.10;99.90;;;;;;4820925;29;20034;-92
2022/03/30 11:43:11;;;;;;;2.63;2.28;;;6.10;99.90;;;;;;4820572;29;20064;-92
2022/03/30 11:45:41;;;;;;;2.92;2.15;;;6.10;99.90;;;;;;4822853;29;20049;-92
2022/03/30 12:00:03;;;;;;;4.53;3.10;;;6.00;99.90;;;;;;4817322;29;20165;-91
2022/03/30 12:02:59;;;;;;;3.88;2.92;;;6.00;99.90;;;;;;4833186;29;20042;-92
2022/03/30 12:05:25;;;;;;;6.93;3.17;;;6.00;99.90;;;;;;4802425;29;20034;-92
2022/03/30 12:08:18;;;;;;;5.03;3.35;;;6.00;99.90;;;;;;4802521;29;20160;-92
2022/03/30 12:10:53;;;;;;;4.97;3.55;;;5.90;99.90;;;;;;4799931;29;20038;-93
2022/03/30 12:13:37;;;;;;;3.28;2.70;;;5.90;99.90;;;;;;4785626;29;20026;-93
2022/03/30 12:16:14;;;;;;;3.38;2.13;;;5.90;99.90;;;;;;4818674;29;20066;-92
2022/03/30 12:18:48;;;;;;;2.78;2.08;;;5.90;99.90;;;;;;4830433;29;20089;-93
2022/03/30 12:21:34;;;;;;;3.90;1.90;;;5.90;99.90;;;;;;4841936;29;20056;-91
2022/03/30 12:24:07;;;;;;;1.20;1.10;;;5.80;99.90;;;;;;4819072;29;20064;-92
2022/03/30 12:26:33;;;;;;;1.77;1.42;;;5.90;99.90;;;;;;4804822;29;20342;-91
2022/03/30 12:29:49;;;;;;;1.20;1.10;;;5.90;99.90;;;;;;4820435;29;20062;-93
2022/03/30 12:32:37;;;;;;;1.67;1.05;;;5.90;99.90;;;;;;4818991;29;20065;-93
2022/03/30 12:35:16;;;;;;;1.85;1.30;;;6.00;99.90;;;;;;4844492;29;20030;-92
2022/03/30 12:37:46;;;;;;;1.35;1.17;;;6.00;99.90;;;;;;4822087;29;20027;-93
2022/03/30 12:40:16;;;;;;;2.35;0.98;;;6.00;99.90;;;;;;4819608;29;20029;-94
2022/03/30 12:42:44;;;;;;;1.48;1.33;;;6.00;99.90;;;;;;4820155;29;20030;-93
2022/03/30 12:45:14;;;;;;;1.02;0.93;;;6.00;99.90;;;;;;4820779;29;20026;-94
2022/03/30 12:47:45;;;;;;;1.77;1.47;;;6.10;99.90;;;;;;4821461;29;20026;-92
2022/03/30 12:51:02;;;;;;;1.67;1.30;;;6.20;99.90;;;;;;4825255;29;20035;-93
2022/03/30 12:53:36;;;;;;;1.25;1.10;;;6.20;99.90;;;;;;4838568;29;20050;-93
2022/03/30 12:56:21;;;;;;;1.30;1.10;;;6.20;99.90;;;;;;4822370;29;20046;-92
2022/03/30 12:58:54;;;;;;;1.20;1.10;;;6.20;99.90;;;;;;4822480;29;20057;-92
2022/03/30 13:04:30;;;;;;;1.52;1.00;;;6.40;99.90;;;;;;4840188;29;20056;-93
2022/03/30 13:07:13;;;;;;;1.80;1.40;;;6.40;99.90;;;;;;4826306;29;20386;-91
2022/03/30 13:10:07;;;;;;;2.42;1.73;;;6.40;99.90;;;;;;4827528;29;20030;-95
2022/03/30 13:13:10;;;;;;;2.08;1.55;;;6.30;99.90;;;;;;4824751;29;20033;-92
2022/03/30 13:15:36;;;;;;;0.82;0.73;;;6.10;99.90;;;;;;4823645;29;20050;-92
2022/03/30 13:18:08;;;;;;;0.65;0.63;;;6.00;99.90;;;;;;4843410;29;20061;-90
2022/03/30 13:20:36;;;;;;;0.40;0.30;;;5.90;99.90;;;;;;4828623;29;20082;-91
2022/03/30 13:23:20;;;;;;;0.40;0.40;;;5.70;99.90;;;;;;4826367;29;20034;-92
2022/03/30 14:21:02;;;;;;;2.22;0.70;;;5.40;99.90;;;;;;5875048;23;20055;-92
2022/03/30 14:23:28;;;;;;;0.60;0.60;;;5.40;99.90;;;;;;4888670;29;20049;-92
2022/03/30 14:25:54;;;;;;;0.80;0.80;;;5.40;99.90;;;;;;4889563;29;20500;-91
2022/03/30 14:28:22;;;;;;;1.20;0.60;;;5.40;99.90;;;;;;4891702;29;20068;-94
2022/03/30 14:30:48;;;;;;;0.90;0.60;;;5.40;99.90;;;;;;4868559;29;20036;-92
2022/03/30 14:33:16;;;;;;;0.98;0.98;;;5.40;99.90;;;;;;4870014;29;20036;-91
2022/03/30 14:35:43;;;;;;;1.27;0.82;;;5.40;99.90;;;;;;4868138;29;20033;-92
2022/03/30 14:38:10;;;;;;;3.50;1.60;;;5.50;99.90;;;;;;4867089;29;20383;-91
2022/03/30 14:40:41;;;;;;;1.10;1.00;;;5.40;99.90;;;;;;4865812;29;20064;-92
2022/03/30 14:43:07;;;;;;;1.85;1.33;;;5.40;99.90;;;;;;4864526;29;20052;-92
2022/03/30 14:45:33;;;;;;;1.30;1.00;;;5.40;99.90;;;;;;4864646;29;20060;-91
2022/03/30 14:47:59;;;;;;;1.83;1.10;;;5.40;99.90;;;;;;4864920;29;20033;-91
2022/03/30 14:50:25;;;;;;;1.02;0.93;;;5.50;99.90;;;;;;4864815;29;20124;-92
2022/03/30 14:52:51;;;;;;;2.60;1.02;;;5.50;99.90;;;;;;4865364;29;20037;-91
2022/03/30 14:55:18;;;;;;;4.82;1.98;;;5.60;99.90;;;;;;4864791;29;20170;-93
2022/03/30 14:57:44;;;;;;;3.90;2.28;;;5.60;99.90;;;;;;4863199;29;20025;-92